FLIGHT INFORMATION
United States Air Force

260

At Arrival Gate

KPAE
 KADW
DATE: 2018-12-11
GATE:  -
GATE DEPARTURE: 08:02
TAKEOFF: 08:13
DATE: 2018-12-11
GATE:  -
LANDING: 12:36
GATE ARRIVAL: 12:41
FLIGHT DATA
Crew: CHRIS MAKRIS
Speed: 487 kts Altitude: 41000 ft
Stage Length: 2025 nm
Route: FLAAK MLP LWT DIK ABR RWF HARPI ODI DUTYS GIJ ESL
Block Time: 4.7 Flight Time: 4.4
Fuel Used: 73553 LB
TRACK DATA
50000 FT1000 KTAltitudeSpeed
AIRCRAFT INFORMATION
Aircraft Type: B748
Registration: 30000
SELCAL:  MSN/LN: 0 / 1
Operator: UNITED STATES AIR FORCE
Flights: 2 Block Time: 6.2 Flight Time: 5.8
Fuel Used: 111003 LB
  • DEPARTURE INFORMATION
    Date: 2018-12-11
    Airport: KPAE
    Gate:  -
    Gate Departure: 08:02
    Takeoff: 08:13
    ARRIVAL INFORMATION
    Date: 2018-12-11
    Airport: KADW
    Gate:  -
    Landing: 12:36
    Gate Arrival: 12:41
  • FLIGHT DATA
    Crew: CHRIS MAKRIS
    Speed: 487 kts Altitude: 41000 ft
    Stage Length: 1093 nm
    Route: FLAAK MLP LWT DIK ABR RWF HARPI ODI DUTYS GIJ ESL
    Block Time: 4.7 Flight Time: 4.4
    Fuel Used: 73553 LB
  • AIRCRAFT INFORMATION
    Aircraft Type: B748
    Registration: 30000
    SELCAL:  MSN/LN: 0 / 1
    Operator: United States Air Force
    Flights: 2 Block Time: 6.2 Flight Time: 5.8
    Fuel Used: 111003 LB

DATALINK LOG | Newest first | Current as of: 2020-07-07 08:45:57
LABEL ID SEQUENCE CONTENT Dn/Up
QD412412:41 17▼ Dn
QC365212:36▼ Dn
GA5859ADVANCED GATE ASSIGNMENTS NOT YET AVAILABLE AT THIS AIRPORT▲ Up
GR5825KADW 12:34▼ Dn
2U4711KADW 110956Z AUTO 35003KT 10SM CLR M05/M08 A3015 RMK AO2 SLP220 T10541077 $▲ Up
2S4711KADW▼ Dn
2U2044KADW 110756Z AUTO 00000KT 10SM CLR M05/M07 A3017 RMK AO2 SLP227 T10511071 $▲ Up
2S2044KADW▼ Dn
QB132208:13▼ Dn
QA021408:02 91▼ Dn


AIRCRAFT HISTORY
FLIGHT DATE FLIGHT NUMBER ORIGIN DESTINATION ROUTE BLOCK TIME FLIGHT TIME FUEL USED (LB) PILOT
2019-02-044KADW TXKF KADW TXKF2.11.837450-HIDDEN-
2018-12-11260KPAE KADW FLAAK MLP LWT DIK ABR RWF HARPI ODI DUTYS GIJ ESL4.74.473553Chris Makris